createdAt,value
2022-12-04T00:00:15.875Z,35.2948
2022-12-04T00:05:16.792Z,35.34099
2022-12-04T00:10:17.810Z,35.35272
2022-12-04T00:15:26.662Z,35.40403
2022-12-04T00:20:28.035Z,35.36324
2022-12-04T00:25:29.022Z,35.39747
2022-12-04T00:30:29.913Z,35.34588
2022-12-04T00:35:30.831Z,35.4556
2022-12-04T00:40:31.803Z,35.40949
2022-12-04T00:45:32.934Z,35.48998
2022-12-04T00:50:33.891Z,35.57085
2022-12-04T00:55:34.885Z,35.49565
2022-12-04T01:00:35.864Z,35.62729
2022-12-04T01:05:36.847Z,35.51815
2022-12-04T01:10:37.803Z,35.63922
2022-12-04T01:15:38.767Z,35.77744
2022-12-04T01:20:39.666Z,35.70794
2022-12-04T01:25:40.591Z,35.78239
2022-12-04T01:30:41.474Z,35.75899
2022-12-04T01:35:42.412Z,35.79912
2022-12-04T01:40:43.372Z,35.77586
2022-12-04T01:45:44.691Z,35.85074
2022-12-04T01:50:45.687Z,35.92614
2022-12-04T01:55:46.604Z,36.08715
2022-12-04T02:00:51.024Z,36.06925
2022-12-04T02:05:52.714Z,36.02325
2022-12-04T02:10:53.594Z,36.16685
2022-12-04T02:15:54.499Z,36.14385
2022-12-04T02:20:55.451Z,36.14965
2022-12-04T02:25:56.434Z,36.17821
2022-12-04T02:30:57.525Z,36.29362
2022-12-04T02:35:58.494Z,36.29433
2022-12-04T02:40:59.385Z,36.39176
2022-12-04T02:46:00.379Z,36.2712
2022-12-04T02:51:01.583Z,36.51876
2022-12-04T02:56:02.537Z,36.56478
2022-12-04T03:01:03.571Z,36.51308
2022-12-04T03:06:04.539Z,36.61629
2022-12-04T03:11:05.504Z,36.65668
2022-12-04T03:16:06.502Z,36.60483
2022-12-04T03:21:07.552Z,36.64473
2022-12-04T03:26:08.451Z,36.63879
2022-12-04T03:31:09.482Z,36.58719
2022-12-04T03:36:10.411Z,36.55792
2022-12-04T03:41:11.287Z,36.62129
2022-12-04T03:46:12.357Z,36.56412
2022-12-04T03:51:13.324Z,36.57529
2022-12-04T03:56:14.284Z,36.53478
2022-12-04T04:01:15.303Z,36.50054
2022-12-04T04:06:16.367Z,36.58672
2022-12-04T04:11:17.407Z,36.63819
2022-12-04T04:16:18.394Z,36.63846
2022-12-04T04:21:19.395Z,36.58656
2022-12-04T04:26:20.319Z,36.47088
2022-12-04T04:31:21.411Z,36.3668
2022-12-04T04:36:22.377Z,36.38914
2022-12-04T04:41:23.274Z,36.20504
2022-12-04T04:46:24.209Z,36.22219
2022-12-04T04:51:25.203Z,36.17075
2022-12-04T04:56:26.112Z,36.28013
2022-12-04T05:01:27.212Z,36.16483
2022-12-04T05:06:28.191Z,36.09011
2022-12-04T05:11:29.103Z,36.33806
2022-12-04T05:16:30.186Z,36.37298
2022-12-04T05:21:31.149Z,36.41263
2022-12-04T05:26:32.096Z,36.3783
2022-12-04T05:31:33.137Z,36.45333
2022-12-04T05:36:34.141Z,36.60329
2022-12-04T05:41:35.115Z,36.56267
2022-12-04T05:46:36.118Z,36.53933
2022-12-04T05:51:37.172Z,36.47616
2022-12-04T05:56:38.084Z,36.57903
2022-12-04T06:01:39.026Z,36.50423
2022-12-04T06:06:40.023Z,36.55026
2022-12-04T06:11:40.949Z,36.64244
2022-12-04T06:16:41.979Z,36.71673
2022-12-04T06:21:42.970Z,36.53234
2022-12-04T06:27:03.900Z,36.50423
2022-12-04T06:32:16.462Z,36.72286
2022-12-04T06:37:22.115Z,36.66559
2022-12-04T06:42:23.077Z,36.71146
2022-12-04T06:47:24.129Z,36.76268
2022-12-04T06:52:25.082Z,36.74499
2022-12-04T06:57:26.092Z,36.65269
2022-12-04T07:02:27.106Z,36.69352
2022-12-04T07:07:28.149Z,36.75094
2022-12-04T07:12:29.134Z,36.77389
2022-12-04T07:17:30.230Z,36.91778
2022-12-04T07:22:31.180Z,36.78549
2022-12-04T07:27:32.198Z,36.90078
2022-12-04T07:32:33.201Z,36.86611
2022-12-04T07:37:34.189Z,36.92333
2022-12-04T07:42:35.175Z,36.88855
2022-12-04T07:47:36.064Z,36.85935
2022-12-04T07:52:36.970Z,36.76744
2022-12-04T07:57:37.879Z,36.77335
2022-12-04T08:02:38.902Z,36.82461
2022-12-04T08:07:39.868Z,36.72654
2022-12-04T08:12:40.785Z,36.66866
2022-12-04T08:17:41.682Z,36.71489
2022-12-04T08:22:42.656Z,36.72668
2022-12-04T08:27:47.347Z,36.70918
2022-12-04T08:32:48.727Z,36.70327
2022-12-04T08:37:49.681Z,36.76654
2022-12-04T08:42:50.568Z,36.67407
2022-12-04T08:47:52.687Z,36.68583
2022-12-04T08:52:54.219Z,36.69708
2022-12-04T08:57:55.358Z,36.62185
2022-12-04T09:02:56.284Z,36.60452
2022-12-04T09:07:57.253Z,36.56457
2022-12-04T09:12:58.198Z,36.78227
2022-12-04T09:17:59.118Z,36.49934
2022-12-04T09:23:04.787Z,36.45345
2022-12-04T09:28:06.104Z,36.41307
2022-12-04T09:33:07.000Z,36.4999
2022-12-04T09:38:07.901Z,36.64407
2022-12-04T09:43:08.818Z,36.53444
2022-12-04T09:48:09.750Z,36.70215
2022-12-04T09:53:10.639Z,36.79447
2022-12-04T09:58:11.473Z,36.72467
2022-12-04T10:03:12.546Z,36.52863
2022-12-04T10:08:13.630Z,36.54555
2022-12-04T10:13:14.561Z,36.48219
2022-12-04T10:18:15.522Z,36.64928
2022-12-04T10:23:16.526Z,36.73033
2022-12-04T10:28:17.511Z,36.67255
2022-12-04T10:33:18.498Z,36.70153
2022-12-04T10:38:19.450Z,36.8111
2022-12-04T10:43:20.499Z,36.75835
2022-12-04T10:48:21.460Z,36.72355
2022-12-04T10:53:22.369Z,36.67707
2022-12-04T10:58:23.259Z,36.74045
2022-12-04T11:03:24.283Z,36.5906
2022-12-04T11:08:25.257Z,36.68298
2022-12-04T11:13:26.317Z,36.71705
2022-12-04T11:18:27.220Z,36.58437
2022-12-04T11:23:28.161Z,36.67055
2022-12-04T11:28:41.245Z,36.61265
2022-12-04T11:33:43.276Z,36.56056
2022-12-04T11:38:44.267Z,36.50301
2022-12-04T11:43:45.615Z,36.63041
2022-12-04T11:48:46.623Z,36.68228
2022-12-04T11:53:47.565Z,36.61844
2022-12-04T11:58:48.478Z,36.67653
2022-12-04T12:03:49.398Z,36.81503
2022-12-04T12:08:50.336Z,36.78035
2022-12-04T12:13:51.266Z,36.82
2022-12-04T12:18:52.201Z,36.65871
2022-12-04T12:23:53.098Z,36.75708
2022-12-04T12:28:53.994Z,36.84378
2022-12-04T12:33:54.953Z,36.86645
2022-12-04T12:38:55.850Z,36.88959
2022-12-04T12:43:56.777Z,37.00465
2022-12-04T12:48:58.673Z,37.01613
2022-12-04T12:53:59.740Z,36.93524
2022-12-04T12:59:00.636Z,37.07329
2022-12-04T13:04:01.554Z,37.00972
2022-12-04T13:09:02.555Z,36.9635
2022-12-04T13:14:03.469Z,36.92258
2022-12-04T13:19:04.356Z,36.84196
2022-12-04T13:24:05.276Z,36.85348
2022-12-04T13:29:06.191Z,36.98651
2022-12-04T13:34:07.110Z,37.15365
2022-12-04T13:39:08.026Z,37.15934
2022-12-04T13:44:08.946Z,37.09567
2022-12-04T13:49:09.868Z,37.23424
2022-12-04T13:54:10.790Z,37.21106
2022-12-04T13:59:11.667Z,37.29167
2022-12-04T14:04:12.541Z,37.25695
2022-12-04T14:09:13.447Z,37.24028
2022-12-04T14:14:14.398Z,37.43057
2022-12-04T14:19:15.295Z,37.49988
2022-12-04T14:24:16.191Z,37.6611
2022-12-04T14:29:17.070Z,37.66638
2022-12-04T14:34:18.010Z,37.53379
2022-12-04T14:39:18.901Z,37.64338
2022-12-04T14:44:19.805Z,37.782
2022-12-04T14:49:20.699Z,37.90295
2022-12-04T14:54:21.563Z,38.05831
2022-12-04T14:59:22.467Z,38.00072
2022-12-04T15:04:23.557Z,38.01211
2022-12-04T15:09:24.499Z,38.07566
2022-12-04T15:14:25.376Z,38.27127
2022-12-04T15:19:26.341Z,38.30561
2022-12-04T15:24:27.267Z,38.20176
2022-12-04T15:29:28.191Z,38.17266
2022-12-04T15:34:29.172Z,38.10314
2022-12-04T15:39:30.095Z,37.84961
2022-12-04T15:44:30.999Z,37.97617
2022-12-04T15:49:31.924Z,38.12604
2022-12-04T15:54:32.856Z,38.05685
2022-12-04T15:59:33.831Z,37.94735
2022-12-04T16:04:35.012Z,38.13747
2022-12-04T16:09:35.992Z,38.06222
2022-12-04T16:14:36.980Z,38.03909
2022-12-04T16:19:37.884Z,38.05663
2022-12-04T16:24:39.192Z,38.14843
2022-12-04T16:29:40.101Z,38.1196
2022-12-04T16:34:41.086Z,38.01001
2022-12-04T16:39:42.021Z,38.11946
2022-12-04T16:44:42.921Z,37.98664
2022-12-04T16:49:43.826Z,38.12517
2022-12-04T16:54:44.744Z,38.07332
2022-12-04T16:59:46.015Z,38.14233
2022-12-04T17:04:47.011Z,38.13102
2022-12-04T17:09:47.942Z,38.22886
2022-12-04T17:14:48.864Z,38.19439
2022-12-04T17:19:49.757Z,38.37899
2022-12-04T17:24:55.927Z,38.53435
2022-12-04T17:29:57.267Z,38.33244
2022-12-04T17:34:58.653Z,38.38428
2022-12-04T17:39:59.808Z,38.41318
2022-12-04T17:45:00.674Z,38.38418
2022-12-04T17:50:01.625Z,38.44772
2022-12-04T17:55:02.532Z,38.5517
2022-12-04T18:00:03.472Z,38.73631
2022-12-04T18:05:04.481Z,38.66689
2022-12-04T18:10:05.418Z,38.62053
2022-12-04T18:15:06.341Z,38.40127
2022-12-04T18:20:07.539Z,38.511
2022-12-04T18:25:08.664Z,38.51078
2022-12-04T18:30:09.631Z,38.56278
2022-12-04T18:35:10.601Z,38.63792
2022-12-04T18:40:11.525Z,38.57442
2022-12-04T18:45:12.483Z,38.60888
2022-12-04T18:50:13.349Z,38.46477
2022-12-04T18:55:14.237Z,38.46461
2022-12-04T19:00:15.114Z,38.56855
2022-12-04T19:05:15.983Z,38.6954
2022-12-04T19:10:16.891Z,38.70709
2022-12-04T19:15:17.779Z,38.73588
2022-12-04T19:20:18.702Z,38.63762
2022-12-04T19:25:19.651Z,38.6779
2022-12-04T19:30:20.557Z,38.56232
2022-12-04T19:35:26.511Z,38.44687
2022-12-04T19:40:27.465Z,38.65462
2022-12-04T19:45:28.520Z,38.51609
2022-12-04T19:50:29.580Z,38.58518
2022-12-04T19:55:30.505Z,38.63714
2022-12-04T20:00:31.443Z,38.58511
2022-12-04T20:05:32.368Z,38.51006
2022-12-04T20:10:33.330Z,38.50437
2022-12-04T20:15:34.516Z,38.56212
2022-12-04T20:20:35.483Z,38.60269
2022-12-04T20:25:36.433Z,38.62576
2022-12-04T20:30:37.510Z,38.76435
2022-12-04T20:35:38.560Z,38.82192
2022-12-04T20:40:39.494Z,38.76402
2022-12-04T20:45:40.578Z,38.74676
2022-12-04T20:50:41.535Z,38.63706
2022-12-04T20:55:42.522Z,38.64841
2022-12-04T21:00:43.471Z,38.52697
2022-12-04T21:05:44.437Z,38.5793
2022-12-04T21:10:45.374Z,38.61964
2022-12-04T21:15:46.866Z,38.70632
2022-12-04T21:20:47.776Z,38.73516
2022-12-04T21:25:48.711Z,38.6891
2022-12-04T21:30:50.063Z,38.88539
2022-12-04T21:35:51.115Z,38.75818
2022-12-04T21:40:52.074Z,38.72367
2022-12-04T21:45:53.108Z,38.63695
2022-12-04T21:50:54.114Z,38.67164
2022-12-04T21:55:55.044Z,38.80447
2022-12-04T22:00:55.960Z,38.85064
2022-12-04T22:05:56.893Z,38.75836
2022-12-04T22:10:57.809Z,38.79297
2022-12-04T22:15:58.874Z,38.75249
2022-12-04T22:20:59.870Z,38.7699
2022-12-04T22:26:00.836Z,38.79295
2022-12-04T22:31:01.811Z,38.86812
2022-12-04T22:36:02.870Z,38.83352
2022-12-04T22:41:03.802Z,38.93161
2022-12-04T22:46:04.841Z,38.80459
2022-12-04T22:51:06.122Z,39.01228
2022-12-04T22:56:07.038Z,38.83328
2022-12-04T23:01:07.926Z,38.79862
2022-12-04T23:06:08.923Z,38.76404
2022-12-04T23:11:09.819Z,38.83334
2022-12-04T23:16:13.263Z,38.85064
2022-12-04T23:21:17.833Z,38.75829
2022-12-04T23:26:18.764Z,38.86228
2022-12-04T23:31:19.961Z,38.86222
2022-12-04T23:36:21.033Z,38.9604
2022-12-04T23:41:22.174Z,38.94299
2022-12-04T23:46:23.287Z,38.90257
2022-12-04T23:51:24.276Z,38.91409
2022-12-04T23:56:25.210Z,38.88515
